Time;durP1;ratioP1;P1;durP2;ratioP2;P2;SDS_P1;SDS_P2;PMS_P1;PMS_P2;Temp;Humidity;BMP_temperature;BMP_pressure;BME280_temperature;BME280_humidity;BME280_pressure;Samples;Min_cycle;Max_cycle;Signal;HPM_P1;HPM_P2
2022/05/12 00:02:11;;;;;;;8.93;1.75;;;11.20;99.90;;;;;;5029761;28;20076;-64
2022/05/12 00:04:38;;;;;;;4.72;1.70;;;11.10;99.90;;;;;;5031329;28;20057;-65
2022/05/12 00:07:05;;;;;;;6.07;1.33;;;11.10;99.90;;;;;;5030511;28;20412;-64
2022/05/12 00:09:31;;;;;;;3.40;1.20;;;11.00;99.90;;;;;;5031826;28;20548;-64
2022/05/12 00:11:57;;;;;;;4.78;1.33;;;11.00;99.90;;;;;;5029600;28;20489;-65
2022/05/12 00:14:23;;;;;;;4.03;1.40;;;10.90;99.90;;;;;;5029554;28;20053;-65
2022/05/12 00:16:48;;;;;;;6.78;1.63;;;10.90;99.90;;;;;;5029216;28;20045;-64
2022/05/12 00:19:14;;;;;;;4.63;1.25;;;10.90;99.90;;;;;;5030396;28;20092;-64
2022/05/12 00:21:40;;;;;;;4.25;1.40;;;10.80;99.90;;;;;;5030584;28;20056;-63
2022/05/12 00:24:06;;;;;;;2.55;1.17;;;10.80;99.90;;;;;;5031461;28;20099;-63
2022/05/12 00:26:34;;;;;;;3.78;1.20;;;10.80;99.90;;;;;;5030208;28;20049;-65
2022/05/12 00:29:02;;;;;;;4.95;1.13;;;10.70;99.90;;;;;;5030070;28;20081;-64
2022/05/12 00:31:29;;;;;;;3.22;1.63;;;10.70;99.90;;;;;;5045031;28;20050;-64
2022/05/12 00:33:55;;;;;;;7.95;1.92;;;10.70;99.90;;;;;;5030411;28;20149;-63
2022/05/12 00:36:21;;;;;;;8.77;1.40;;;10.60;99.90;;;;;;5029934;28;20141;-64
2022/05/12 00:38:47;;;;;;;4.07;1.33;;;10.60;99.90;;;;;;5029865;28;20128;-64
2022/05/12 00:41:13;;;;;;;5.18;1.27;;;10.60;99.90;;;;;;5030150;28;20133;-63
2022/05/12 00:43:57;;;;;;;6.18;1.50;;;10.60;99.90;;;;;;5031400;28;20521;-65
2022/05/12 00:46:33;;;;;;;6.30;1.40;;;10.60;99.90;;;;;;5033485;28;20057;-66
2022/05/12 00:49:21;;;;;;;4.55;1.52;;;10.50;99.90;;;;;;5034854;28;20049;-64
2022/05/12 00:51:50;;;;;;;5.13;1.63;;;10.50;99.90;;;;;;5035138;28;20061;-65
2022/05/12 00:54:25;;;;;;;3.75;1.02;;;10.50;99.90;;;;;;5034462;28;20118;-63
2022/05/12 00:56:51;;;;;;;5.65;1.25;;;10.40;99.90;;;;;;5034030;28;20515;-65
2022/05/12 00:59:23;;;;;;;4.72;1.58;;;10.40;99.90;;;;;;5033292;28;20084;-65
2022/05/12 01:01:48;;;;;;;3.60;1.48;;;10.40;99.90;;;;;;5034421;28;20049;-64
2022/05/12 01:04:15;;;;;;;2.47;0.88;;;10.30;99.90;;;;;;5032130;28;20041;-66
2022/05/12 01:06:40;;;;;;;3.55;1.08;;;10.30;99.90;;;;;;5033089;28;20079;-64
2022/05/12 01:09:06;;;;;;;3.50;1.17;;;10.30;99.90;;;;;;5032748;28;20508;-65
2022/05/12 01:11:32;;;;;;;1.25;0.85;;;10.30;99.90;;;;;;5033387;28;20056;-65
2022/05/12 01:14:04;;;;;;;4.90;1.42;;;10.20;99.90;;;;;;5034220;28;20394;-64
2022/05/12 01:16:37;;;;;;;4.88;1.45;;;10.20;99.90;;;;;;5031128;28;20061;-65
2022/05/12 01:19:04;;;;;;;2.03;1.30;;;10.20;99.90;;;;;;5022680;28;20108;-64
2022/05/12 01:21:29;;;;;;;3.20;1.33;;;10.10;99.90;;;;;;5031970;28;20128;-65
2022/05/12 01:23:55;;;;;;;3.22;1.02;;;10.10;99.90;;;;;;5033100;28;20136;-63
2022/05/12 01:26:20;;;;;;;7.28;2.00;;;10.10;99.90;;;;;;5032187;28;20461;-64
2022/05/12 01:28:46;;;;;;;3.70;1.00;;;10.00;99.90;;;;;;5033711;28;20060;-63
2022/05/12 01:31:17;;;;;;;3.45;1.65;;;10.00;99.90;;;;;;5032534;28;20057;-64
2022/05/12 01:33:43;;;;;;;5.88;1.55;;;10.00;99.90;;;;;;5016575;28;20045;-63
2022/05/12 01:36:08;;;;;;;3.30;1.33;;;9.90;99.90;;;;;;5034036;28;20068;-65
2022/05/12 01:38:34;;;;;;;3.35;1.30;;;9.90;99.90;;;;;;5033071;28;20454;-66
2022/05/12 01:40:59;;;;;;;4.47;1.20;;;9.90;99.90;;;;;;5032393;28;20052;-62
2022/05/12 01:43:25;;;;;;;1.67;1.27;;;9.90;99.90;;;;;;5033933;28;20063;-64
2022/05/12 01:45:50;;;;;;;2.65;1.30;;;9.80;99.90;;;;;;5031713;28;20128;-63
2022/05/12 01:48:17;;;;;;;2.28;1.25;;;9.80;99.90;;;;;;5032389;28;20522;-65
2022/05/12 01:50:45;;;;;;;4.22;1.17;;;9.80;99.90;;;;;;5032255;28;20061;-63
2022/05/12 01:53:10;;;;;;;3.92;1.17;;;9.70;99.90;;;;;;5032177;28;20130;-64
2022/05/12 01:55:37;;;;;;;3.60;1.35;;;9.60;99.90;;;;;;5032051;28;20096;-64
2022/05/12 01:58:03;;;;;;;1.80;1.00;;;9.70;99.90;;;;;;5031913;28;20049;-64
2022/05/12 02:00:30;;;;;;;3.58;1.40;;;9.60;99.90;;;;;;5032807;28;20051;-63
2022/05/12 02:03:00;;;;;;;2.17;1.08;;;9.60;99.90;;;;;;5031293;28;20058;-65
2022/05/12 02:05:33;;;;;;;3.90;1.30;;;9.50;99.90;;;;;;5033132;28;20053;-65
2022/05/12 02:07:59;;;;;;;3.55;1.23;;;9.50;99.90;;;;;;5048557;28;20064;-64
2022/05/12 02:10:31;;;;;;;1.73;1.00;;;9.40;99.90;;;;;;5032804;28;20050;-63
2022/05/12 02:12:58;;;;;;;5.50;1.05;;;9.40;99.90;;;;;;5032390;28;20160;-64
2022/05/12 02:15:24;;;;;;;3.78;1.77;;;9.30;99.90;;;;;;5033199;28;20045;-63
2022/05/12 02:17:50;;;;;;;3.55;1.33;;;9.30;99.90;;;;;;5032668;28;20087;-65
2022/05/12 02:20:18;;;;;;;4.00;1.55;;;9.30;99.90;;;;;;5033050;28;20145;-64
2022/05/12 02:22:44;;;;;;;4.60;1.60;;;9.30;99.90;;;;;;5033407;28;20049;-63
2022/05/12 02:25:10;;;;;;;3.53;1.30;;;9.30;99.90;;;;;;5031725;28;20501;-64
2022/05/12 02:27:36;;;;;;;5.00;1.48;;;9.20;99.90;;;;;;5033104;28;20059;-64
2022/05/12 02:30:03;;;;;;;6.03;1.73;;;9.20;99.90;;;;;;5031386;28;20045;-63
2022/05/12 02:32:28;;;;;;;3.65;1.80;;;9.20;99.90;;;;;;5030955;28;20415;-63
2022/05/12 02:34:55;;;;;;;2.20;1.50;;;9.20;99.90;;;;;;5032733;28;20060;-63
2022/05/12 02:37:21;;;;;;;4.18;1.70;;;9.20;99.90;;;;;;5032851;28;20052;-64
2022/05/12 02:39:47;;;;;;;3.35;1.80;;;9.20;99.90;;;;;;5031790;28;20065;-64
2022/05/12 02:42:13;;;;;;;4.95;1.70;;;9.20;99.90;;;;;;5031353;28;20057;-63
2022/05/12 02:44:38;;;;;;;3.53;1.48;;;9.20;99.90;;;;;;5031221;28;20136;-64
2022/05/12 02:47:07;;;;;;;4.90;1.58;;;9.20;99.90;;;;;;5030971;28;20065;-63
2022/05/12 02:49:33;;;;;;;5.32;1.52;;;9.10;99.90;;;;;;5031933;28;20402;-65
2022/05/12 02:51:59;;;;;;;5.13;1.98;;;9.10;99.90;;;;;;5031773;28;20080;-65
2022/05/12 02:54:25;;;;;;;6.00;2.17;;;9.10;99.90;;;;;;5030560;28;20478;-64
2022/05/12 02:56:54;;;;;;;2.65;1.40;;;9.10;99.90;;;;;;5031713;28;20049;-66
2022/05/12 02:59:20;;;;;;;6.28;1.98;;;9.10;99.90;;;;;;5032918;28;20128;-64
2022/05/12 03:01:45;;;;;;;4.88;1.73;;;9.10;99.90;;;;;;5030695;28;20137;-63
2022/05/12 03:04:11;;;;;;;4.15;1.58;;;9.00;99.90;;;;;;5033265;28;20052;-65
2022/05/12 03:06:37;;;;;;;5.15;2.20;;;9.00;99.90;;;;;;5029953;28;20069;-64
2022/05/12 03:09:03;;;;;;;3.28;1.73;;;9.00;99.90;;;;;;5031881;28;20502;-64
2022/05/12 03:11:29;;;;;;;6.22;2.33;;;9.00;99.90;;;;;;5031191;28;20064;-65
2022/05/12 03:13:55;;;;;;;2.63;1.65;;;8.90;99.90;;;;;;5032730;28;20133;-65
2022/05/12 03:16:22;;;;;;;6.25;2.25;;;8.90;99.90;;;;;;5030848;28;20064;-64
2022/05/12 03:18:51;;;;;;;3.90;1.55;;;8.90;99.90;;;;;;5031364;28;20045;-64
2022/05/12 03:21:17;;;;;;;7.38;2.40;;;8.90;99.90;;;;;;5032044;28;20053;-63
2022/05/12 03:23:43;;;;;;;7.80;2.10;;;8.90;99.90;;;;;;5031430;28;20152;-64
2022/05/12 03:26:10;;;;;;;7.45;2.47;;;8.80;99.90;;;;;;5030950;28;20529;-65
2022/05/12 03:28:36;;;;;;;3.90;2.28;;;8.80;99.90;;;;;;5032792;28;20406;-65
2022/05/12 03:31:02;;;;;;;7.18;2.40;;;8.80;99.90;;;;;;5030422;28;20460;-64
2022/05/12 03:33:27;;;;;;;4.47;2.45;;;8.80;99.90;;;;;;5030371;28;20045;-64
2022/05/12 03:35:53;;;;;;;2.63;2.42;;;8.80;99.90;;;;;;5032177;28;20045;-65
2022/05/12 03:38:20;;;;;;;5.22;2.17;;;8.70;99.90;;;;;;5030868;28;20501;-64
2022/05/12 03:40:46;;;;;;;6.35;2.53;;;8.70;99.90;;;;;;5030371;28;20963;-63
2022/05/12 03:44:46;;;;;;;6.25;3.13;;;8.70;99.90;;;;;;5028149;28;20120;-64
2022/05/12 03:45:58;;;;;;;6.22;2.85;;;8.70;99.90;;;;;;5030013;28;20060;-63
2022/05/12 03:48:24;;;;;;;6.50;2.58;;;8.70;99.90;;;;;;5031138;28;20049;-63
2022/05/12 03:50:50;;;;;;;6.20;3.00;;;8.70;99.90;;;;;;5030649;28;20060;-66
2022/05/12 03:53:16;;;;;;;5.60;2.67;;;8.70;99.90;;;;;;5028852;28;20073;-65
2022/05/12 03:55:41;;;;;;;9.02;3.22;;;8.80;99.90;;;;;;5031891;28;20061;-64
2022/05/12 03:58:07;;;;;;;4.35;2.83;;;8.80;99.90;;;;;;5028944;28;20045;-65
2022/05/12 04:00:34;;;;;;;6.97;3.10;;;8.80;99.90;;;;;;5030340;28;20128;-65
2022/05/12 04:03:00;;;;;;;13.27;4.18;;;8.80;99.90;;;;;;5030671;28;20061;-63
2022/05/12 04:05:27;;;;;;;6.97;2.72;;;8.80;99.90;;;;;;5031637;28;20102;-66
2022/05/12 04:07:53;;;;;;;6.95;2.83;;;8.80;99.90;;;;;;5031380;28;20433;-64
2022/05/12 04:10:20;;;;;;;5.68;3.30;;;8.80;99.90;;;;;;5030859;28;20054;-65
2022/05/12 04:12:46;;;;;;;8.32;2.97;;;8.80;99.90;;;;;;5028283;28;20064;-64
2022/05/12 04:15:13;;;;;;;5.85;2.85;;;8.80;99.90;;;;;;5030307;28;20053;-65
2022/05/12 04:17:39;;;;;;;4.65;3.08;;;8.90;99.90;;;;;;5031354;28;20111;-64
2022/05/12 04:20:07;;;;;;;8.25;2.95;;;8.90;99.90;;;;;;5035095;28;20057;-64
2022/05/12 04:22:33;;;;;;;5.45;3.20;;;8.90;99.90;;;;;;5033556;28;20050;-64
2022/05/12 04:24:59;;;;;;;5.32;2.90;;;8.90;99.90;;;;;;5033723;28;20052;-64
2022/05/12 04:27:25;;;;;;;8.40;2.95;;;9.00;99.90;;;;;;5034201;28;20151;-65
2022/05/12 04:29:51;;;;;;;6.50;2.92;;;9.00;99.90;;;;;;5031525;28;20100;-66
2022/05/12 04:32:16;;;;;;;6.32;2.92;;;9.00;99.90;;;;;;5032009;28;20050;-65
2022/05/12 04:37:30;;;;;;;13.20;3.38;;;9.10;99.90;;;;;;5039050;28;20081;-64
2022/05/12 04:40:05;;;;;;;6.88;2.88;;;9.10;99.90;;;;;;5029044;28;20409;-64
2022/05/12 04:42:30;;;;;;;10.02;3.45;;;9.20;99.90;;;;;;5031878;28;20104;-65
2022/05/12 04:44:56;;;;;;;10.63;3.55;;;9.20;99.90;;;;;;5033902;28;20049;-64
2022/05/12 04:47:21;;;;;;;11.02;3.92;;;9.30;99.90;;;;;;5032621;28;20103;-65
2022/05/12 04:49:47;;;;;;;9.50;3.70;;;9.30;99.90;;;;;;5033108;28;20464;-63
2022/05/12 04:52:12;;;;;;;6.38;3.15;;;9.40;99.90;;;;;;5033148;28;20476;-64
2022/05/12 04:54:38;;;;;;;8.25;3.63;;;9.40;99.90;;;;;;5033566;28;20046;-64
2022/05/12 04:57:04;;;;;;;7.40;3.38;;;9.50;99.90;;;;;;5032871;28;20099;-65
2022/05/12 04:59:31;;;;;;;8.48;3.40;;;9.50;99.90;;;;;;5031702;28;20493;-65
2022/05/12 05:01:57;;;;;;;11.18;4.55;;;9.50;99.90;;;;;;5029552;28;20570;-66
2022/05/12 05:04:23;;;;;;;9.95;3.63;;;9.60;99.90;;;;;;5033422;28;20121;-64
2022/05/12 05:06:49;;;;;;;9.80;4.20;;;9.60;99.90;;;;;;5030979;28;20061;-64
2022/05/12 05:09:15;;;;;;;12.73;4.72;;;9.70;99.90;;;;;;5026632;28;20054;-65
2022/05/12 05:11:41;;;;;;;8.90;4.70;;;9.80;99.90;;;;;;5033564;28;20136;-66
2022/05/12 05:14:06;;;;;;;8.15;4.45;;;9.80;99.90;;;;;;5031136;28;20053;-65
2022/05/12 05:16:32;;;;;;;9.98;3.67;;;9.90;99.90;;;;;;5031412;28;20216;-65
2022/05/12 05:18:58;;;;;;;10.25;4.55;;;9.90;99.90;;;;;;5032890;28;20069;-64
2022/05/12 05:21:23;;;;;;;9.85;4.43;;;10.00;99.90;;;;;;5033118;28;20530;-63
2022/05/12 05:23:49;;;;;;;11.80;4.90;;;10.10;99.90;;;;;;5032511;28;20462;-64
2022/05/12 05:26:14;;;;;;;11.30;5.70;;;10.30;99.90;;;;;;5035336;28;20056;-66
2022/05/12 05:28:40;;;;;;;13.50;5.57;;;10.40;99.90;;;;;;5033263;28;20049;-64
2022/05/12 05:31:06;;;;;;;11.90;6.68;;;10.50;99.90;;;;;;5028239;28;20045;-64
2022/05/12 05:33:32;;;;;;;16.13;5.95;;;10.90;99.90;;;;;;5029577;28;20149;-65
2022/05/12 05:35:58;;;;;;;9.70;6.07;;;12.00;99.90;;;;;;5031329;28;20536;-65
2022/05/12 05:38:25;;;;;;;10.50;6.05;;;13.00;99.90;;;;;;5031164;28;20470;-66
2022/05/12 05:40:51;;;;;;;11.50;5.45;;;13.60;99.90;;;;;;5032321;28;20061;-65
2022/05/12 05:43:17;;;;;;;11.88;6.47;;;14.10;99.90;;;;;;5032582;28;20340;-66
2022/05/12 05:45:42;;;;;;;9.52;6.18;;;14.70;99.90;;;;;;5032829;28;20474;-63
2022/05/12 05:48:08;;;;;;;13.13;6.35;;;14.90;99.90;;;;;;5034627;28;20072;-64
2022/05/12 05:53:25;;;;;;;10.27;7.43;;;14.10;99.90;;;;;;5032631;28;20053;-64
2022/05/12 05:55:57;;;;;;;12.15;7.22;;;14.30;99.90;;;;;;5031746;28;20095;-66
2022/05/12 05:58:25;;;;;;;11.35;5.97;;;14.50;99.90;;;;;;5032791;28;20049;-65
2022/05/12 06:00:51;;;;;;;11.88;6.18;;;14.90;99.90;;;;;;5016943;28;20464;-65
2022/05/12 06:03:17;;;;;;;10.35;6.30;;;15.30;99.90;;;;;;5034113;28;20053;-65
2022/05/12 06:05:44;;;;;;;11.85;6.28;;;15.70;99.90;;;;;;5033982;28;20057;-65
2022/05/12 06:08:13;;;;;;;10.82;6.03;;;16.00;99.90;;;;;;5015916;28;20485;-64
2022/05/12 06:10:39;;;;;;;11.93;6.13;;;16.40;99.90;;;;;;5019723;28;20050;-65
2022/05/12 06:13:05;;;;;;;15.90;6.57;;;16.30;99.90;;;;;;5011464;28;20105;-64
2022/05/12 06:15:31;;;;;;;9.45;5.95;;;16.50;99.90;;;;;;5027281;28;20049;-64
2022/05/12 06:17:56;;;;;;;11.73;6.63;;;16.80;99.90;;;;;;5030990;28;20053;-63
2022/05/12 06:20:23;;;;;;;8.18;5.60;;;16.80;99.90;;;;;;5032454;28;20527;-65
2022/05/12 06:22:49;;;;;;;10.88;5.75;;;16.20;99.90;;;;;;5032268;28;20073;-64
2022/05/12 06:25:16;;;;;;;11.82;5.43;;;15.60;99.90;;;;;;5032669;28;20089;-65
2022/05/12 06:27:43;;;;;;;10.00;4.90;;;15.00;99.90;;;;;;5029980;28;20072;-65
2022/05/12 06:30:11;;;;;;;8.77;5.07;;;14.60;99.90;;;;;;5031207;28;20054;-64
2022/05/12 06:32:38;;;;;;;9.90;5.15;;;14.30;99.90;;;;;;5029838;28;20107;-64
2022/05/12 06:35:05;;;;;;;8.98;5.32;;;14.20;99.90;;;;;;5033557;28;20135;-64
2022/05/12 06:37:32;;;;;;;9.73;5.28;;;14.20;99.90;;;;;;5033814;28;20061;-64
2022/05/12 06:39:57;;;;;;;9.57;5.22;;;14.20;99.90;;;;;;5030076;28;20504;-64
2022/05/12 06:42:23;;;;;;;9.70;5.00;;;14.20;99.90;;;;;;5031907;28;20045;-66
2022/05/12 06:44:50;;;;;;;7.85;4.90;;;14.20;99.90;;;;;;5031452;28;20563;-64
2022/05/12 06:47:16;;;;;;;9.55;4.78;;;14.30;99.90;;;;;;5031892;28;20136;-65
2022/05/12 06:49:43;;;;;;;8.10;4.47;;;14.30;99.90;;;;;;5033690;28;20049;-65
2022/05/12 06:52:10;;;;;;;6.57;4.25;;;14.40;99.90;;;;;;5033493;28;20060;-65
2022/05/12 06:54:37;;;;;;;8.63;4.68;;;14.40;99.90;;;;;;5031913;28;20111;-65
2022/05/12 06:57:04;;;;;;;7.32;4.10;;;14.50;99.90;;;;;;5033455;28;20133;-65
2022/05/12 06:59:30;;;;;;;9.88;3.67;;;14.50;99.90;;;;;;5033388;28;20053;-64
2022/05/12 07:01:56;;;;;;;6.80;3.92;;;14.60;99.90;;;;;;5031328;28;20406;-63
2022/05/12 07:04:24;;;;;;;6.80;3.83;;;14.70;99.90;;;;;;5015319;28;20046;-64
2022/05/12 07:06:50;;;;;;;7.60;3.40;;;14.80;99.90;;;;;;5032542;28;20055;-64
2022/05/12 07:09:18;;;;;;;10.52;4.30;;;15.00;99.90;;;;;;5032243;28;20061;-65
2022/05/12 07:11:44;;;;;;;8.02;3.30;;;15.00;99.90;;;;;;5031472;28;20050;-64
2022/05/12 07:14:10;;;;;;;6.70;3.15;;;15.10;99.90;;;;;;5031673;28;20117;-65
2022/05/12 07:16:36;;;;;;;8.85;3.50;;;15.20;99.90;;;;;;5031158;28;20060;-65
2022/05/12 07:19:02;;;;;;;6.90;2.88;;;15.30;99.90;;;;;;5033058;28;20045;-64
2022/05/12 07:26:56;;;;;;;5.15;2.20;;;15.50;99.90;;;;;;5032385;28;20065;-65
2022/05/12 07:29:24;;;;;;;8.50;2.38;;;15.60;99.90;;;;;;5031805;28;20136;-65
2022/05/12 07:31:50;;;;;;;8.18;2.97;;;15.70;99.90;;;;;;5032427;28;20053;-65
2022/05/12 07:34:17;;;;;;;5.63;2.88;;;15.90;99.90;;;;;;5033005;28;20049;-63
2022/05/12 07:36:45;;;;;;;7.07;2.92;;;16.00;99.90;;;;;;5030976;28;20061;-64
2022/05/12 07:39:12;;;;;;;6.97;2.50;;;16.10;99.90;;;;;;5030392;28;20506;-64
2022/05/12 07:41:41;;;;;;;4.95;2.38;;;16.20;99.90;;;;;;5031273;28;20045;-64
2022/05/12 07:44:09;;;;;;;7.22;2.08;;;16.30;99.90;;;;;;5031474;28;20129;-64
2022/05/12 07:46:35;;;;;;;3.95;1.83;;;16.30;99.90;;;;;;5031258;28;20370;-64
2022/05/12 07:49:02;;;;;;;4.90;2.22;;;16.40;99.90;;;;;;5033036;28;20064;-65
2022/05/12 07:51:28;;;;;;;3.70;1.48;;;16.40;99.90;;;;;;5030287;28;20077;-64
2022/05/12 07:53:53;;;;;;;5.07;1.40;;;16.30;99.90;;;;;;5031725;28;20540;-63
2022/05/12 07:56:22;;;;;;;5.68;1.70;;;16.40;99.90;;;;;;5030889;28;20137;-64
2022/05/12 07:58:48;;;;;;;6.22;1.90;;;16.30;99.90;;;;;;5032377;28;20510;-64
2022/05/12 08:01:15;;;;;;;5.55;1.98;;;16.40;99.90;;;;;;5030532;28;20089;-65
2022/05/12 08:03:40;;;;;;;4.20;1.83;;;16.60;99.90;;;;;;5028753;28;20048;-65
2022/05/12 08:06:07;;;;;;;4.93;1.80;;;16.80;99.90;;;;;;5029211;28;20049;-65
2022/05/12 08:08:34;;;;;;;3.67;1.35;;;17.00;99.90;;;;;;5030844;28;20080;-65
2022/05/12 08:11:00;;;;;;;4.32;2.00;;;17.20;99.90;;;;;;5028702;28;20542;-64
2022/05/12 08:13:27;;;;;;;7.05;1.60;;;17.30;99.90;;;;;;5030401;28;20132;-64
2022/05/12 08:15:53;;;;;;;5.20;1.80;;;17.50;99.90;;;;;;5028824;28;20444;-64
2022/05/12 08:18:22;;;;;;;5.28;1.60;;;17.60;99.90;;;;;;5028817;28;20107;-64
2022/05/12 08:20:49;;;;;;;6.30;2.22;;;17.70;99.90;;;;;;5028995;28;20546;-64
2022/05/12 08:23:15;;;;;;;6.85;1.73;;;17.80;99.90;;;;;;5010791;28;20399;-66
2022/05/12 08:25:42;;;;;;;6.25;2.35;;;17.80;99.90;;;;;;5029874;28;20386;-64
2022/05/12 08:28:08;;;;;;;4.80;1.60;;;17.80;99.90;;;;;;5030944;28;20058;-65
2022/05/12 08:30:34;;;;;;;3.40;1.63;;;17.80;99.90;;;;;;5032477;28;20088;-63
2022/05/12 08:33:00;;;;;;;6.30;2.20;;;17.70;99.90;;;;;;5031853;28;20057;-66
2022/05/12 08:35:26;;;;;;;3.55;1.90;;;17.70;99.90;;;;;;5032542;28;20467;-64
2022/05/12 08:37:52;;;;;;;5.70;1.65;;;17.90;99.90;;;;;;5030689;28;20091;-63
2022/05/12 08:40:30;;;;;;;3.80;1.85;;;18.00;99.90;;;;;;5031611;28;20045;-65
2022/05/12 08:43:01;;;;;;;3.70;1.10;;;18.00;99.90;;;;;;5030606;28;20533;-63
2022/05/12 08:45:28;;;;;;;5.63;1.52;;;18.00;99.90;;;;;;5032505;28;20053;-62
2022/05/12 08:47:56;;;;;;;7.05;1.75;;;18.10;99.90;;;;;;5029286;28;20058;-63
2022/05/12 08:50:29;;;;;;;5.43;1.60;;;18.10;99.90;;;;;;5031586;28;20049;-64
2022/05/12 08:52:55;;;;;;;5.40;2.17;;;18.00;99.90;;;;;;5030222;28;20059;-64
2022/05/12 08:55:30;;;;;;;5.35;1.75;;;18.10;99.90;;;;;;5031003;28;20053;-62
2022/05/12 08:58:06;;;;;;;4.68;1.25;;;18.10;99.90;;;;;;5031948;28;20061;-63
2022/05/12 09:00:47;;;;;;;3.80;1.50;;;18.20;99.90;;;;;;5029730;28;20057;-64
2022/05/12 09:03:28;;;;;;;5.20;1.95;;;18.20;99.90;;;;;;5030888;28;20053;-62
2022/05/12 09:06:11;;;;;;;5.55;1.70;;;18.40;99.90;;;;;;5034400;28;20513;-63
2022/05/12 09:08:57;;;;;;;5.32;1.80;;;18.50;99.90;;;;;;5035433;28;20147;-62
2022/05/12 09:11:42;;;;;;;5.60;1.67;;;18.30;99.90;;;;;;5034096;28;20666;-62
2022/05/12 09:14:32;;;;;;;6.10;1.85;;;18.10;99.90;;;;;;5015515;28;20505;-63
2022/05/12 09:16:59;;;;;;;5.68;1.73;;;18.10;99.90;;;;;;5015209;28;20049;-62
2022/05/12 09:19:27;;;;;;;4.13;1.58;;;18.40;99.90;;;;;;4998767;28;20347;-62
2022/05/12 09:21:53;;;;;;;3.95;1.77;;;18.40;99.90;;;;;;5034010;28;20488;-63
2022/05/12 09:24:19;;;;;;;5.18;1.80;;;18.30;99.90;;;;;;5034641;28;20076;-64
2022/05/12 09:26:51;;;;;;;6.38;1.95;;;18.30;99.90;;;;;;5033302;28;20154;-63
2022/05/12 09:29:30;;;;;;;4.00;1.40;;;18.30;99.90;;;;;;5034377;28;20414;-62
2022/05/12 09:32:25;;;;;;;2.83;1.42;;;18.30;99.90;;;;;;5032507;28;20053;-63
2022/05/12 09:35:19;;;;;;;2.58;1.33;;;18.20;99.90;;;;;;5031614;28;20148;-64
2022/05/12 09:37:45;;;;;;;4.72;1.60;;;18.10;99.90;;;;;;5034309;28;20089;-65
2022/05/12 09:40:37;;;;;;;3.58;1.50;;;18.10;99.90;;;;;;5033835;28;20096;-65
2022/05/12 09:43:28;;;;;;;7.30;1.70;;;18.00;99.90;;;;;;5034962;28;20061;-63
2022/05/12 09:46:18;;;;;;;4.57;1.73;;;17.90;99.90;;;;;;5032284;28;20060;-64
2022/05/12 09:48:48;;;;;;;3.55;1.45;;;18.00;99.90;;;;;;5033181;28;20522;-65
2022/05/12 09:51:25;;;;;;;5.47;1.58;;;17.90;99.50;;;;;;5033554;28;20057;-64
2022/05/12 09:53:54;;;;;;;5.90;1.60;;;17.70;99.90;;;;;;5031871;28;20544;-66
2022/05/12 09:56:32;;;;;;;4.70;1.58;;;17.70;99.90;;;;;;5033396;28;20115;-65
2022/05/12 09:59:13;;;;;;;3.33;1.30;;;17.70;99.90;;;;;;5034773;28;20103;-64
2022/05/12 10:01:58;;;;;;;4.82;1.52;;;17.80;99.90;;;;;;5032471;28;20081;-64
2022/05/12 10:10:23;;;;;;;2.83;1.63;;;18.60;99.40;;;;;;5034155;28;20050;-63
2022/05/12 10:13:02;;;;;;;6.45;1.88;;;18.90;89.30;;;;;;5033243;28;20064;-65
2022/05/12 10:15:33;;;;;;;5.05;1.40;;;18.90;99.30;;;;;;5034443;28;20128;-64
2022/05/12 10:18:33;;;;;;;3.15;1.50;;;18.90;99.30;;;;;;5032146;28;20171;-64
2022/05/12 10:21:11;;;;;;;4.80;1.20;;;19.00;84.20;;;;;;5032830;28;20063;-65
2022/05/12 10:23:58;;;;;;;5.45;1.52;;;19.00;97.50;;;;;;5033265;28;20049;-64
2022/05/12 10:26:34;;;;;;;2.47;1.20;;;19.10;84.00;;;;;;5034004;28;20049;-63
2022/05/12 10:29:47;;;;;;;6.20;1.65;;;19.20;91.70;;;;;;5014541;28;20132;-65
2022/05/12 10:32:42;;;;;;;2.80;1.30;;;19.20;93.40;;;;;;5030551;28;20351;-64
2022/05/12 10:35:41;;;;;;;6.32;1.40;;;19.10;79.80;;;;;;5003667;28;20065;-63
2022/05/12 10:38:27;;;;;;;2.53;0.93;;;18.70;74.40;;;;;;5030832;28;20413;-65
2022/05/12 10:40:59;;;;;;;3.28;1.20;;;18.70;82.10;;;;;;5024409;28;20183;-65
2022/05/12 10:43:37;;;;;;;;;;;18.80;90.60;;;;;;5033581;28;20081;-64
2022/05/12 10:46:13;;;;;;;2.17;1.00;;;19.00;72.20;;;;;;5032849;28;19926;-66
2022/05/12 10:48:56;;;;;;;4.05;1.08;;;19.10;84.60;;;;;;5032617;28;20157;-64
2022/05/12 10:51:33;;;;;;;3.28;1.05;;;19.20;86.00;;;;;;5031307;28;20049;-63
2022/05/12 10:54:14;;;;;;;3.75;1.45;;;19.50;81.00;;;;;;5033798;28;20108;-64
2022/05/12 10:56:56;;;;;;;4.90;1.30;;;19.70;75.70;;;;;;5033740;28;20054;-64
2022/05/12 10:59:28;;;;;;;3.65;1.10;;;20.00;89.70;;;;;;5032840;28;20045;-63
2022/05/12 11:02:00;;;;;;;4.25;1.38;;;20.10;76.30;;;;;;5033234;28;20053;-63
2022/05/12 11:04:31;;;;;;;2.47;1.27;;;20.00;70.90;;;;;;5031556;28;20417;-64
2022/05/12 11:07:08;;;;;;;2.67;1.20;;;20.10;81.00;;;;;;5032280;28;20501;-65
2022/05/12 11:09:41;;;;;;;5.43;1.27;;;20.20;71.50;;;;;;5033596;28;20064;-63
2022/05/12 11:12:30;;;;;;;6.40;1.08;;;20.20;71.40;;;;;;5032955;28;20061;-65
2022/05/12 11:15:09;;;;;;;4.35;1.20;;;20.00;64.70;;;;;;5033018;28;20103;-64
2022/05/12 11:17:45;;;;;;;3.17;1.13;;;20.10;68.40;;;;;;5031631;28;20054;-63
2022/05/12 11:20:26;;;;;;;2.95;0.98;;;20.10;64.60;;;;;;5029830;28;20088;-63
2022/05/12 11:23:12;;;;;;;5.03;0.90;;;20.10;64.20;;;;;;5032108;28;20049;-63
2022/05/12 11:26:04;;;;;;;6.68;1.27;;;19.90;66.30;;;;;;5032573;28;20552;-63
2022/05/12 11:31:33;;;;;;;4.63;1.10;;;19.70;66.40;;;;;;5028911;28;20206;-63
2022/05/12 11:34:04;;;;;;;4.38;1.00;;;19.80;67.50;;;;;;5018941;28;20049;-65
2022/05/12 11:36:41;;;;;;;3.53;0.83;;;19.90;64.80;;;;;;5048289;28;20099;-65
2022/05/12 11:39:37;;;;;;;3.22;1.00;;;20.00;64.10;;;;;;5031294;28;20088;-63
2022/05/12 11:42:22;;;;;;;3.72;0.98;;;20.20;66.20;;;;;;5031754;28;20124;-63
2022/05/12 11:45:04;;;;;;;2.55;0.80;;;20.30;64.30;;;;;;5031214;28;20055;-62
2022/05/12 11:47:43;;;;;;;2.25;1.15;;;20.40;64.20;;;;;;5029972;28;20053;-62
2022/05/12 11:50:50;;;;;;;2.50;1.17;;;20.60;63.10;;;;;;5030538;28;20080;-63
2022/05/12 11:53:58;;;;;;;6.63;1.38;;;20.60;60.00;;;;;;5032009;28;20060;-63
2022/05/12 11:56:48;;;;;;;3.53;1.00;;;20.60;58.60;;;;;;5009497;28;20077;-65
2022/05/12 11:59:43;;;;;;;2.95;0.85;;;20.40;59.80;;;;;;5013037;28;20096;-63
2022/05/12 12:02:27;;;;;;;3.90;1.40;;;20.40;61.40;;;;;;5018741;28;20053;-64
2022/05/12 12:04:55;;;;;;;4.30;1.17;;;20.10;58.60;;;;;;5030761;28;20064;-64
2022/05/12 12:07:21;;;;;;;1.80;0.88;;;20.30;61.10;;;;;;5030810;28;20397;-64
2022/05/12 12:09:46;;;;;;;2.47;1.08;;;20.50;62.10;;;;;;5031355;28;20065;-65
2022/05/12 12:12:41;;;;;;;2.97;0.82;;;20.70;60.30;;;;;;5031577;28;20061;-64
2022/05/12 12:15:30;;;;;;;2.60;0.70;;;20.80;55.30;;;;;;5028873;28;20058;-63
2022/05/12 12:18:00;;;;;;;3.42;0.88;;;20.80;57.80;;;;;;5012013;28;20471;-65
2022/05/12 12:20:28;;;;;;;1.92;0.90;;;20.90;58.50;;;;;;5012728;28;20133;-64
2022/05/12 12:23:17;;;;;;;4.03;1.00;;;20.90;57.60;;;;;;5031496;28;20057;-64
2022/05/12 12:25:54;;;;;;;3.33;1.02;;;21.00;57.90;;;;;;5030297;28;20050;-64
2022/05/12 12:28:19;;;;;;;2.45;0.80;;;20.80;58.30;;;;;;5031888;28;20050;-63
2022/05/12 12:30:51;;;;;;;1.90;0.70;;;20.70;58.10;;;;;;5031179;28;20068;-64
2022/05/12 12:33:24;;;;;;;2.50;0.80;;;20.50;57.10;;;;;;5029743;28;20466;-63
2022/05/12 12:36:04;;;;;;;2.20;0.68;;;20.40;57.90;;;;;;5030149;28;20054;-64
2022/05/12 12:38:57;;;;;;;2.67;1.10;;;20.50;56.80;;;;;;5030554;28;20170;-62
2022/05/12 12:41:31;;;;;;;8.07;0.80;;;20.70;56.50;;;;;;5032281;28;20053;-64
2022/05/12 12:44:12;;;;;;;6.80;1.23;;;20.90;57.40;;;;;;5033773;28;20490;-64
2022/05/12 12:46:55;;;;;;;3.15;1.05;;;21.00;57.80;;;;;;5034004;28;20060;-63
2022/05/12 12:49:25;;;;;;;3.33;1.00;;;20.90;57.40;;;;;;5034649;28;20061;-63
2022/05/12 12:52:08;;;;;;;4.10;1.25;;;20.80;57.50;;;;;;5032248;28;20124;-63
2022/05/12 12:57:24;;;;;;;4.68;0.80;;;20.70;57.10;;;;;;5034710;28;20053;-63
2022/05/12 12:59:59;;;;;;;2.63;0.88;;;20.60;57.00;;;;;;5035706;28;20075;-64
2022/05/12 13:02:40;;;;;;;1.52;0.80;;;20.60;56.70;;;;;;5033716;28;20076;-65
2022/05/12 13:05:11;;;;;;;1.42;0.77;;;20.60;55.90;;;;;;5033494;28;20077;-64
2022/05/12 13:07:40;;;;;;;2.20;0.95;;;20.80;57.70;;;;;;5028234;28;20417;-63
2022/05/12 13:10:13;;;;;;;4.32;1.10;;;20.80;56.80;;;;;;5025315;28;20053;-63
2022/05/12 13:12:39;;;;;;;3.95;0.90;;;21.00;54.80;;;;;;5039666;28;20195;-63
2022/05/12 13:15:19;;;;;;;4.05;0.70;;;21.00;54.90;;;;;;5026550;28;20145;-62
2022/05/12 13:17:50;;;;;;;1.60;0.70;;;21.20;53.00;;;;;;5025501;28;20054;-63
2022/05/12 13:20:22;;;;;;;1.42;0.70;;;21.10;52.90;;;;;;5042095;28;20084;-63
2022/05/12 13:22:55;;;;;;;1.02;0.70;;;21.10;52.00;;;;;;5023866;28;20057;-62
2022/05/12 13:25:28;;;;;;;3.17;0.90;;;21.00;52.70;;;;;;5031712;28;20049;-65
2022/05/12 13:27:55;;;;;;;1.48;0.60;;;20.70;53.00;;;;;;5033920;28;20498;-63
2022/05/12 13:30:33;;;;;;;3.38;0.85;;;20.50;53.60;;;;;;5033679;28;20124;-65